Du har inga inställningar för hoppväder.nu

Hoppväder.nu

Senast uppdaterat 12:43

UTC-tid

2020-02-25 kl. 11:43


Sol och måne

Solen går upp 7:09 och går ner 17:17 (beräknade cirkatider)
Nästa fullmåne blir om 13 dagar (2020-03-09)

METAR

ESOE (Örebro)
(23 minuter sedan)
ESOE 251120Z 07013KT 9999 FEW020 03/M02 Q0991=



ESOK (Karlstad)
(23 minuter sedan)
ESOK 251120Z 07015KT CAVOK 02/M04 Q0990=



ESGR (Skövde)
(23 minuter sedan)
ESGR 251120Z AUTO 09015KT 2300 -SN VV018 01/00 Q0987=



ESSD (Borlänge)
(23 minuter sedan)
ESSD 251120Z 08008KT 9999 SCT017 01/M04 Q0994=



ESOW (Västerås)
(23 minuter sedan)
ESOW 251120Z 07011KT 040V110 9999 SCT022 04/M02 Q0993=



TAF

ESOE (Örebro)
(13 minuter sedan)
ESOE 251130Z 2512/2521 08013KT CAVOK PROB40 2513/2519 07015G25KT 2000 -SN VV012 BECMG 2519/2521 06015G25KT=



ESOK (Karlstad)
(13 minuter sedan)
ESOK 251130Z 2512/2516 06013KT 9999 BKN030 PROB40 2514/2516 06015G25KT 2000 -SN VV012=



ESGR (Skövde)
ESGR



ESSD (Borlänge)
(13 minuter sedan)
ESSD 251130Z 2512/2516 08009KT 9999 BKN016 PROB40 2512/2514 BKN014PROB40 2514/2516 4000 -SN VV014=



ESOW (Västerås)
(13 minuter sedan)
ESOW 251130Z 2512/2516 07012KT 9999 SCT020 PROB40 2513/2516 4000 -SHSNRA SCT020TCU=





Kodnycklar till TAF och METAR






LHP

(Örebro är område G2a i Södra delen)

ÖVERSIKT FÖR OMRÅDE se3 UTFÄRDAD 250842
GÄLLANDE DEN 25 FEBRUARI 2020 MELLAN 09 OCH 17 UTC


Väderöversikt

Ett lågtryck och en ockluderad front drar långsamt österut över södra Sverige.

Sikt under 5 kilometer eller molnbas under 1000 fot
09-17UTC: Hela området utom se34


Måttlig eller svår isbildning
09-17UTC: Hela området utom se34


Måttlig eller svår turbulens
09-11UTC: Område se32 och se31
11-17UTC: Hela området utom se34








Spotting

Hur fungerar spotthjälpen och Vindkartan?

Markvind är ca 0 m/s.
Vind på 600 m ca 0 m/s.
Vind på 1500 m ca 0 m/s.
Vind på 3000 m ca 0 m/s.
FXB flyger ca 36 m/s över marken på finalen.
Du driver ca 0 m bakåt i frifall. (0 m)
Lämplig spot är 8 sekunder eller 288 m innan gropen.
(-8s eller -288 m)
För små grupper eller ensamhoppare bör man vänta 4-6 sekunder mellan grupperna.
För större grupper bör man vänta 8-10 sekunder mellan grupperna.


Vindkartan

Senast uppdaterad 12:43




All data kommer från LFV.se